Time;durP1;ratioP1;P1;durP2;ratioP2;P2;SDS_P1;SDS_P2;PMS_P1;PMS_P2;Temp;Humidity;BMP_temperature;BMP_pressure;BME280_temperature;BME280_humidity;BME280_pressure;Samples;Min_cycle;Max_cycle;Signal;HPM_P1;HPM_P2
2023/03/17 00:00:51;;;;;;;5.85;3.40;;;9.60;99.90;;;;;;5054704;28;20075;-35
2023/03/17 00:03:24;;;;;;;5.50;3.45;;;9.70;99.90;;;;;;5054646;28;20025;-36
2023/03/17 00:05:52;;;;;;;8.43;3.65;;;9.60;99.90;;;;;;5054523;28;20056;-38
2023/03/17 00:08:22;;;;;;;5.45;3.20;;;9.70;99.90;;;;;;5054840;28;20036;-34
2023/03/17 00:10:49;;;;;;;5.18;3.20;;;9.60;99.90;;;;;;5055324;28;20021;-34
2023/03/17 00:13:16;;;;;;;6.55;4.25;;;9.60;99.90;;;;;;5055957;28;20355;-34
2023/03/17 00:15:43;;;;;;;4.88;3.17;;;9.60;99.90;;;;;;5055433;28;20510;-37
2023/03/17 00:18:15;;;;;;;5.30;3.60;;;9.60;99.90;;;;;;5054655;28;20036;-34
2023/03/17 00:20:43;;;;;;;5.85;3.00;;;9.70;99.90;;;;;;5056111;28;20021;-34
2023/03/17 00:23:20;;;;;;;6.28;3.38;;;9.60;99.90;;;;;;5055759;28;20047;-34
2023/03/17 00:25:46;;;;;;;5.55;3.10;;;9.60;99.90;;;;;;5055138;28;20032;-35
2023/03/17 00:28:21;;;;;;;4.28;2.75;;;9.60;99.90;;;;;;5055251;28;20033;-38
2023/03/17 00:30:54;;;;;;;5.80;3.10;;;9.60;99.90;;;;;;5055429;28;20433;-34
2023/03/17 00:33:25;;;;;;;6.43;3.28;;;9.60;99.90;;;;;;5054531;28;20024;-36
2023/03/17 00:35:51;;;;;;;5.93;3.03;;;9.60;99.90;;;;;;5054968;28;20478;-34
2023/03/17 00:38:19;;;;;;;4.90;2.70;;;9.60;99.90;;;;;;5055415;28;20463;-34
2023/03/17 00:40:45;;;;;;;3.97;2.72;;;9.60;99.90;;;;;;5054203;28;20032;-36
2023/03/17 00:43:12;;;;;;;4.10;2.65;;;9.60;99.90;;;;;;5054310;28;20032;-34
2023/03/17 00:45:39;;;;;;;4.90;3.10;;;9.60;99.90;;;;;;5054602;28;20025;-35
2023/03/17 00:48:18;;;;;;;5.32;2.83;;;9.60;99.90;;;;;;5053712;28;20021;-34
2023/03/17 00:50:45;;;;;;;4.75;2.90;;;9.60;99.90;;;;;;5053494;28;20049;-38
2023/03/17 00:53:17;;;;;;;5.22;2.88;;;9.60;99.90;;;;;;5054187;28;20532;-34
2023/03/17 00:55:44;;;;;;;6.07;3.10;;;9.60;99.90;;;;;;5054107;28;20025;-36
2023/03/17 00:58:24;;;;;;;4.05;2.88;;;9.60;99.90;;;;;;5053983;28;20478;-36
2023/03/17 01:00:50;;;;;;;4.20;2.92;;;9.60;99.90;;;;;;5054689;28;20447;-36
2023/03/17 01:03:16;;;;;;;6.38;2.58;;;9.60;99.90;;;;;;5054532;28;20112;-38
2023/03/17 01:05:42;;;;;;;4.80;2.70;;;9.60;99.90;;;;;;5053577;28;20108;-35
2023/03/17 01:08:09;;;;;;;5.55;3.22;;;9.60;99.90;;;;;;5053485;28;20601;-34
2023/03/17 01:10:35;;;;;;;5.15;3.00;;;9.60;99.90;;;;;;5053676;28;20056;-34
2023/03/17 01:13:01;;;;;;;5.38;2.80;;;9.60;99.90;;;;;;5053481;28;20054;-35
2023/03/17 01:15:30;;;;;;;5.03;3.03;;;9.60;99.90;;;;;;5053268;28;20082;-34
2023/03/17 01:17:57;;;;;;;4.50;2.60;;;9.60;99.90;;;;;;5053441;28;20025;-34
2023/03/17 01:20:29;;;;;;;3.78;2.63;;;9.60;99.90;;;;;;5053435;28;20021;-34
2023/03/17 01:22:55;;;;;;;3.80;2.55;;;9.60;99.90;;;;;;5053345;28;20060;-34
2023/03/17 01:25:21;;;;;;;5.25;2.92;;;9.60;99.90;;;;;;5053402;28;20056;-34
2023/03/17 01:27:47;;;;;;;5.63;2.53;;;9.60;99.90;;;;;;5051703;28;20017;-34
2023/03/17 01:30:19;;;;;;;4.10;2.58;;;9.50;99.90;;;;;;5053400;28;20387;-34
2023/03/17 01:32:46;;;;;;;3.38;2.58;;;9.50;99.90;;;;;;5053151;28;20028;-34
2023/03/17 01:35:12;;;;;;;4.85;2.88;;;9.50;99.90;;;;;;5053097;28;20036;-34
2023/03/17 01:37:38;;;;;;;6.25;2.83;;;9.50;99.90;;;;;;5052883;28;20028;-34
2023/03/17 01:40:08;;;;;;;5.00;2.67;;;9.50;99.90;;;;;;5053061;28;20116;-34
2023/03/17 01:42:34;;;;;;;4.38;2.45;;;9.50;99.90;;;;;;5052847;28;20032;-35
2023/03/17 01:45:04;;;;;;;5.18;2.90;;;9.50;99.90;;;;;;5052868;28;20020;-35
2023/03/17 01:47:30;;;;;;;4.18;2.35;;;9.50;99.90;;;;;;5052637;28;20506;-35
2023/03/17 01:49:59;;;;;;;4.45;2.78;;;9.50;99.90;;;;;;5052810;28;20036;-34
2023/03/17 01:52:26;;;;;;;3.60;2.17;;;9.50;99.90;;;;;;5053278;28;20078;-34
2023/03/17 01:54:58;;;;;;;3.70;2.45;;;9.50;99.90;;;;;;5052833;28;20021;-34
2023/03/17 01:57:33;;;;;;;4.57;2.40;;;9.50;99.90;;;;;;5052379;28;20018;-34
2023/03/17 02:00:16;;;;;;;4.22;2.65;;;9.50;99.90;;;;;;5052469;28;20036;-35
2023/03/17 02:02:51;;;;;;;4.68;2.65;;;9.40;99.90;;;;;;5052249;28;20029;-34
2023/03/17 02:05:24;;;;;;;4.75;2.40;;;9.40;99.90;;;;;;5052603;28;20040;-35
2023/03/17 02:07:51;;;;;;;3.95;2.30;;;9.40;99.90;;;;;;5052256;28;20029;-34
2023/03/17 02:10:20;;;;;;;4.00;2.38;;;9.40;99.90;;;;;;5051147;28;20476;-35
2023/03/17 02:12:50;;;;;;;3.88;2.35;;;9.50;99.90;;;;;;5052308;28;20372;-34
2023/03/17 02:15:16;;;;;;;3.45;2.10;;;9.40;99.90;;;;;;5052284;28;20021;-34
2023/03/17 02:17:42;;;;;;;3.28;2.25;;;9.40;99.90;;;;;;5052078;28;20451;-34
2023/03/17 02:20:16;;;;;;;3.03;2.30;;;9.40;99.90;;;;;;5052150;28;20083;-35
2023/03/17 02:22:42;;;;;;;;;;;9.40;99.90;;;;;;5052608;28;20029;-34
2023/03/17 02:25:09;;;;;;;3.05;2.13;;;9.40;99.90;;;;;;5052195;28;19912;-34
2023/03/17 02:27:38;;;;;;;3.03;2.13;;;9.40;99.90;;;;;;5051855;28;20029;-34
2023/03/17 02:30:07;;;;;;;4.32;2.38;;;9.40;99.90;;;;;;5052028;28;20021;-34
2023/03/17 02:32:36;;;;;;;3.45;2.25;;;9.40;99.90;;;;;;5051716;28;20029;-34
2023/03/17 02:35:03;;;;;;;5.05;2.25;;;9.40;99.90;;;;;;5052090;28;20025;-34
2023/03/17 02:37:29;;;;;;;3.20;2.30;;;9.40;99.90;;;;;;5051750;28;20021;-34
2023/03/17 02:39:55;;;;;;;4.50;2.20;;;9.40;99.90;;;;;;5051912;28;20541;-34
2023/03/17 02:42:20;;;;;;;3.67;2.33;;;9.40;99.90;;;;;;5051725;28;20025;-34
2023/03/17 02:44:47;;;;;;;3.40;2.10;;;9.40;99.90;;;;;;5051771;28;20518;-34
2023/03/17 02:47:13;;;;;;;3.00;2.38;;;9.40;99.90;;;;;;5051393;28;20021;-34
2023/03/17 02:49:40;;;;;;;3.50;2.10;;;9.40;99.90;;;;;;5051901;28;20437;-34
2023/03/17 02:52:07;;;;;;;4.13;2.20;;;9.40;99.90;;;;;;5051647;28;20028;-34
2023/03/17 02:54:32;;;;;;;3.00;2.28;;;9.40;99.90;;;;;;5051781;28;20021;-35
2023/03/17 02:56:59;;;;;;;3.50;2.10;;;9.40;99.90;;;;;;5051469;28;20032;-34
2023/03/17 02:59:25;;;;;;;3.67;2.40;;;9.40;99.90;;;;;;5051626;28;20025;-34
2023/03/17 03:01:51;;;;;;;3.95;2.38;;;9.30;99.90;;;;;;5051334;28;20387;-35
2023/03/17 03:04:18;;;;;;;4.45;1.92;;;9.30;99.90;;;;;;5051490;28;20049;-35
2023/03/17 03:06:44;;;;;;;4.93;2.28;;;9.40;99.90;;;;;;5051279;28;20024;-34
2023/03/17 03:09:11;;;;;;;3.25;2.28;;;9.40;99.90;;;;;;5051368;28;20029;-34
2023/03/17 03:11:37;;;;;;;2.72;1.83;;;9.40;99.90;;;;;;5051455;28;20020;-34
2023/03/17 03:14:03;;;;;;;3.13;1.85;;;9.40;99.90;;;;;;5050549;28;20017;-34
2023/03/17 03:16:29;;;;;;;3.45;2.08;;;9.40;99.90;;;;;;5050948;28;20541;-34
2023/03/17 03:18:55;;;;;;;2.90;1.75;;;9.40;99.90;;;;;;5051294;28;20387;-34
2023/03/17 03:21:21;;;;;;;3.72;2.10;;;9.40;99.90;;;;;;5051255;28;20025;-34
2023/03/17 03:23:46;;;;;;;3.00;1.90;;;9.40;99.90;;;;;;5051185;28;20025;-34
2023/03/17 03:26:12;;;;;;;3.05;2.03;;;9.40;99.90;;;;;;5051464;28;20033;-37
2023/03/17 03:28:38;;;;;;;3.75;2.25;;;9.30;99.90;;;;;;5051489;28;20433;-37
2023/03/17 03:31:04;;;;;;;4.03;2.08;;;9.40;99.90;;;;;;5051042;28;20032;-37
2023/03/17 03:33:30;;;;;;;3.30;2.20;;;9.40;99.90;;;;;;5051107;28;20029;-38
2023/03/17 03:35:55;;;;;;;3.28;1.90;;;9.40;99.90;;;;;;5050938;28;20021;-38
2023/03/17 03:38:21;;;;;;;3.42;1.83;;;9.30;99.90;;;;;;5052045;28;20032;-37
2023/03/17 03:40:47;;;;;;;3.45;2.10;;;9.30;99.90;;;;;;5051100;28;20029;-36
2023/03/17 03:43:12;;;;;;;3.95;2.20;;;9.30;99.90;;;;;;5050915;28;20117;-37
2023/03/17 03:45:38;;;;;;;3.22;2.00;;;9.30;99.90;;;;;;5051044;28;20235;-35
2023/03/17 03:48:04;;;;;;;3.10;2.03;;;9.30;99.90;;;;;;5051379;28;20025;-34
2023/03/17 03:50:30;;;;;;;3.20;2.10;;;9.30;99.90;;;;;;5051068;28;20470;-34
2023/03/17 03:52:56;;;;;;;2.72;2.03;;;9.30;99.90;;;;;;5051135;28;20025;-34
2023/03/17 03:55:22;;;;;;;4.60;1.90;;;9.30;99.90;;;;;;5051004;28;20044;-34
2023/03/17 03:57:48;;;;;;;4.45;2.17;;;9.30;99.90;;;;;;5050725;28;20021;-34
2023/03/17 04:00:14;;;;;;;2.58;1.77;;;9.30;99.90;;;;;;5050675;28;20063;-34
2023/03/17 04:02:40;;;;;;;3.53;2.03;;;9.30;99.90;;;;;;5050872;28;20025;-34
2023/03/17 04:05:08;;;;;;;3.35;2.00;;;9.30;99.90;;;;;;5050698;28;20083;-34
2023/03/17 04:07:35;;;;;;;3.05;1.92;;;9.20;99.90;;;;;;5051019;28;20029;-37
2023/03/17 04:10:01;;;;;;;2.85;1.77;;;9.20;99.90;;;;;;5050831;28;20021;-36
2023/03/17 04:12:26;;;;;;;5.55;1.95;;;9.30;99.90;;;;;;5051358;28;20032;-34
2023/03/17 04:14:52;;;;;;;2.42;1.80;;;9.20;99.90;;;;;;5050832;28;20021;-34
2023/03/17 04:17:18;;;;;;;4.57;2.08;;;9.20;99.90;;;;;;5050477;28;20098;-37
2023/03/17 04:19:43;;;;;;;2.95;1.85;;;9.30;99.90;;;;;;5050899;28;20028;-38
2023/03/17 04:22:12;;;;;;;2.83;2.03;;;9.30;99.90;;;;;;5051466;28;20103;-36
2023/03/17 04:24:38;;;;;;;3.70;1.85;;;9.20;99.90;;;;;;5052801;28;20017;-38
2023/03/17 04:27:03;;;;;;;4.30;2.10;;;9.20;99.90;;;;;;5054540;28;20100;-38
2023/03/17 04:29:30;;;;;;;3.53;1.92;;;9.20;99.90;;;;;;5054719;28;20510;-36
2023/03/17 04:31:55;;;;;;;3.25;1.83;;;9.20;99.90;;;;;;5054684;28;20025;-34
2023/03/17 04:34:21;;;;;;;3.03;1.77;;;9.20;99.90;;;;;;5054564;28;20078;-35
2023/03/17 04:36:47;;;;;;;3.05;1.90;;;9.20;99.90;;;;;;5054292;28;20066;-38
2023/03/17 04:39:14;;;;;;;3.38;2.00;;;9.20;99.90;;;;;;5054556;28;20025;-34
2023/03/17 04:41:40;;;;;;;4.60;1.58;;;9.20;99.90;;;;;;5054429;28;20501;-37
2023/03/17 04:44:06;;;;;;;3.08;1.88;;;9.20;99.90;;;;;;5054521;28;20033;-38
2023/03/17 04:46:33;;;;;;;3.90;2.00;;;9.20;99.90;;;;;;5054270;28;20037;-37
2023/03/17 04:48:59;;;;;;;4.13;1.85;;;9.20;99.90;;;;;;5054888;28;20051;-34
2023/03/17 04:51:25;;;;;;;3.40;1.85;;;9.20;99.90;;;;;;5054864;28;20526;-38
2023/03/17 04:53:51;;;;;;;2.40;1.92;;;9.20;99.90;;;;;;5053929;28;20029;-38
2023/03/17 04:56:17;;;;;;;2.30;1.60;;;9.20;99.90;;;;;;5053773;28;20068;-37
2023/03/17 04:58:42;;;;;;;2.08;1.50;;;9.10;99.90;;;;;;5054887;28;20492;-38
2023/03/17 05:01:08;;;;;;;5.32;2.00;;;9.10;99.90;;;;;;5053564;28;20060;-37
2023/03/17 05:03:34;;;;;;;2.72;1.85;;;9.10;99.90;;;;;;5054295;28;20056;-38
2023/03/17 05:06:01;;;;;;;2.55;1.80;;;9.10;99.90;;;;;;5055487;28;20033;-34
2023/03/17 05:08:27;;;;;;;3.05;2.00;;;9.10;99.90;;;;;;5055215;28;20470;-34
2023/03/17 05:10:54;;;;;;;2.47;1.92;;;9.10;99.90;;;;;;5053506;28;20083;-35
2023/03/17 05:13:20;;;;;;;2.45;1.40;;;9.10;99.90;;;;;;5053453;28;20056;-34
2023/03/17 05:15:47;;;;;;;2.65;1.80;;;9.10;99.90;;;;;;5053377;28;20029;-34
2023/03/17 05:18:15;;;;;;;4.35;1.70;;;9.10;99.90;;;;;;5053458;28;20063;-34
2023/03/17 05:20:40;;;;;;;4.05;1.50;;;9.10;99.90;;;;;;5053410;28;20024;-34
2023/03/17 05:23:06;;;;;;;2.90;1.60;;;9.10;99.90;;;;;;5053311;28;20025;-35
2023/03/17 05:25:32;;;;;;;3.90;1.95;;;9.10;99.90;;;;;;5053105;28;20438;-35
2023/03/17 05:27:58;;;;;;;3.10;1.75;;;9.10;99.90;;;;;;5054266;28;20013;-34
2023/03/17 05:30:24;;;;;;;2.97;1.65;;;9.10;99.90;;;;;;5053488;28;20074;-34
2023/03/17 05:32:50;;;;;;;2.88;1.85;;;9.10;99.90;;;;;;5054845;28;20391;-34
2023/03/17 05:35:17;;;;;;;3.45;2.30;;;9.10;99.90;;;;;;5053233;28;20299;-34
2023/03/17 05:37:43;;;;;;;3.75;2.10;;;9.20;99.90;;;;;;5052780;28;20044;-34
2023/03/17 05:40:11;;;;;;;3.55;2.00;;;9.10;99.90;;;;;;5052936;28;20454;-34
2023/03/17 05:42:37;;;;;;;3.22;1.90;;;9.10;99.90;;;;;;5053014;28;20031;-36
2023/03/17 05:45:04;;;;;;;2.45;1.90;;;9.10;99.90;;;;;;5053014;28;20489;-35
2023/03/17 05:47:32;;;;;;;2.38;1.70;;;9.10;99.90;;;;;;5051458;28;20047;-34
2023/03/17 05:49:58;;;;;;;3.22;2.15;;;9.10;99.90;;;;;;5052849;28;20514;-34
2023/03/17 05:52:24;;;;;;;2.97;2.20;;;9.10;99.90;;;;;;5052820;28;20116;-34
2023/03/17 05:54:51;;;;;;;4.15;2.20;;;9.10;99.90;;;;;;5052652;28;20143;-34
2023/03/17 05:57:17;;;;;;;3.20;2.45;;;9.10;99.90;;;;;;5052560;28;20025;-34
2023/03/17 05:59:42;;;;;;;4.40;2.30;;;9.10;99.90;;;;;;5052933;28;20066;-34
2023/03/17 06:02:10;;;;;;;3.38;2.05;;;9.10;99.90;;;;;;5052535;28;20479;-34
2023/03/17 06:04:36;;;;;;;3.97;1.73;;;9.10;99.90;;;;;;5052663;28;20036;-35
2023/03/17 06:07:02;;;;;;;3.85;1.77;;;9.10;99.90;;;;;;5052358;28;20028;-35
2023/03/17 06:09:27;;;;;;;3.03;2.00;;;9.10;99.90;;;;;;5052221;28;20116;-34
2023/03/17 06:11:53;;;;;;;3.85;2.20;;;9.00;99.90;;;;;;5052403;28;20151;-34
2023/03/17 06:14:18;;;;;;;3.42;2.20;;;9.10;99.90;;;;;;5052300;28;20048;-34
2023/03/17 06:16:45;;;;;;;3.92;2.45;;;9.10;99.90;;;;;;5052105;28;20021;-35
2023/03/17 06:19:11;;;;;;;4.22;2.60;;;9.10;99.90;;;;;;5052376;28;20025;-34
2023/03/17 06:21:36;;;;;;;3.05;2.28;;;9.10;99.90;;;;;;5052299;28;20025;-35
2023/03/17 06:24:02;;;;;;;4.47;2.67;;;9.10;99.90;;;;;;5052004;28;20048;-34
2023/03/17 06:26:28;;;;;;;3.85;2.25;;;9.00;99.90;;;;;;5052092;28;20103;-34
2023/03/17 06:28:53;;;;;;;4.38;2.60;;;9.00;99.90;;;;;;5052424;28;20382;-34
2023/03/17 06:31:19;;;;;;;4.50;2.53;;;9.10;99.90;;;;;;5053133;28;20036;-34
2023/03/17 06:33:45;;;;;;;5.43;2.78;;;9.00;99.90;;;;;;5052019;28;20016;-34
2023/03/17 06:36:11;;;;;;;3.05;2.35;;;9.00;99.90;;;;;;5051856;28;20021;-34
2023/03/17 06:38:36;;;;;;;3.63;2.30;;;9.00;99.90;;;;;;5051846;28;20021;-34
2023/03/17 06:41:02;;;;;;;4.53;2.53;;;9.10;99.90;;;;;;5052165;28;20492;-34
2023/03/17 06:43:28;;;;;;;4.22;2.13;;;9.10;99.90;;;;;;5051937;28;20025;-34
2023/03/17 06:45:54;;;;;;;3.60;2.20;;;9.10;99.90;;;;;;5051627;28;20079;-35
2023/03/17 06:48:22;;;;;;;3.40;2.25;;;9.00;99.90;;;;;;5051702;28;20083;-37
2023/03/17 06:50:48;;;;;;;4.30;2.22;;;9.10;99.90;;;;;;5051767;28;20021;-37
2023/03/17 06:53:14;;;;;;;4.00;2.25;;;9.10;99.90;;;;;;5051486;28;20029;-35
2023/03/17 06:55:40;;;;;;;2.53;1.80;;;9.10;99.90;;;;;;5051613;28;20057;-34
2023/03/17 06:58:08;;;;;;;4.85;1.80;;;9.20;99.90;;;;;;5051575;28;20051;-37
2023/03/17 07:00:33;;;;;;;4.97;2.35;;;9.10;99.90;;;;;;5051952;28;20029;-37
2023/03/17 07:02:59;;;;;;;4.22;2.35;;;9.20;99.90;;;;;;5051597;28;20032;-37
2023/03/17 07:05:25;;;;;;;3.35;2.20;;;9.20;99.90;;;;;;5051459;28;20021;-36
2023/03/17 07:07:51;;;;;;;2.70;1.90;;;9.20;99.90;;;;;;5051227;28;20044;-36
2023/03/17 07:10:17;;;;;;;4.10;2.42;;;9.20;99.90;;;;;;5051357;28;20036;-36
2023/03/17 07:12:43;;;;;;;3.15;1.90;;;9.20;99.90;;;;;;5051494;28;20383;-36
2023/03/17 07:15:11;;;;;;;3.92;1.90;;;9.20;99.90;;;;;;5051621;28;20660;-38
2023/03/17 07:17:37;;;;;;;2.90;2.13;;;9.20;99.90;;;;;;5052113;28;20025;-34
2023/03/17 07:20:03;;;;;;;2.90;1.88;;;9.20;99.90;;;;;;5052020;28;20379;-36
2023/03/17 07:22:29;;;;;;;4.32;2.25;;;9.30;99.90;;;;;;5051185;28;20474;-35
2023/03/17 07:24:54;;;;;;;3.17;1.90;;;9.30;99.90;;;;;;5051560;28;20108;-36
2023/03/17 07:27:24;;;;;;;3.22;2.00;;;9.30;99.90;;;;;;5052381;28;20112;-34
2023/03/17 07:29:50;;;;;;;2.15;1.58;;;9.30;99.90;;;;;;5050957;28;20043;-34
2023/03/17 07:32:15;;;;;;;4.13;2.17;;;9.30;99.90;;;;;;5051080;28;20049;-38
2023/03/17 07:34:41;;;;;;;3.15;2.00;;;9.30;99.90;;;;;;5051595;28;20056;-35
2023/03/17 07:37:07;;;;;;;3.83;2.38;;;9.30;99.90;;;;;;5051262;28;20025;-36
2023/03/17 07:39:33;;;;;;;2.85;1.80;;;9.30;99.90;;;;;;5051675;28;20028;-34
2023/03/17 07:41:59;;;;;;;3.55;2.10;;;9.40;99.90;;;;;;5051514;28;20025;-35
2023/03/17 07:44:24;;;;;;;2.83;1.88;;;9.40;99.90;;;;;;5050884;28;20021;-36
2023/03/17 07:46:51;;;;;;;2.67;1.90;;;9.40;99.90;;;;;;5051461;28;20052;-35
2023/03/17 07:49:17;;;;;;;4.10;1.73;;;9.40;99.90;;;;;;5050913;28;20083;-36
2023/03/17 07:51:43;;;;;;;3.00;1.80;;;9.40;99.90;;;;;;5051097;28;20074;-34
2023/03/17 07:54:10;;;;;;;2.80;1.80;;;9.40;99.90;;;;;;5051549;28;20352;-37
2023/03/17 07:56:37;;;;;;;2.42;1.83;;;9.40;99.90;;;;;;5051122;28;20029;-37
2023/03/17 07:59:03;;;;;;;2.95;1.80;;;9.40;99.90;;;;;;5051245;28;20036;-36
2023/03/17 08:01:30;;;;;;;2.60;1.73;;;9.40;99.90;;;;;;5055057;28;20068;-35
2023/03/17 08:03:56;;;;;;;2.72;1.80;;;9.40;99.90;;;;;;5054831;28;20095;-38
2023/03/17 08:06:24;;;;;;;2.13;1.63;;;9.40;99.90;;;;;;5055633;28;20129;-33
2023/03/17 08:08:50;;;;;;;2.90;1.88;;;9.40;99.90;;;;;;5055121;28;20082;-37
2023/03/17 08:11:16;;;;;;;2.70;1.75;;;9.40;99.90;;;;;;5054780;28;20055;-34
2023/03/17 08:13:42;;;;;;;2.45;1.88;;;9.40;99.90;;;;;;5054792;28;20032;-38
2023/03/17 08:16:08;;;;;;;2.35;1.50;;;9.40;99.90;;;;;;5054446;28;20021;-35
2023/03/17 08:18:33;;;;;;;2.45;1.70;;;9.50;99.90;;;;;;5055060;28;20033;-36
2023/03/17 08:20:59;;;;;;;2.55;1.63;;;9.40;99.90;;;;;;5054824;28;20103;-34
2023/03/17 08:23:25;;;;;;;1.80;1.50;;;9.50;99.90;;;;;;5054490;28;20387;-35
2023/03/17 08:26:02;;;;;;;1.98;1.60;;;9.50;99.90;;;;;;5054671;28;20025;-35
2023/03/17 08:28:29;;;;;;;2.85;1.50;;;9.50;99.90;;;;;;5054782;28;20025;-34
2023/03/17 08:31:15;;;;;;;2.40;1.60;;;9.50;99.90;;;;;;5055488;28;20028;-34
2023/03/17 08:33:44;;;;;;;2.03;1.33;;;9.50;99.90;;;;;;5055440;28;20064;-35
2023/03/17 08:36:11;;;;;;;1.58;1.42;;;9.50;99.90;;;;;;5053978;28;20029;-35
2023/03/17 08:38:39;;;;;;;2.45;1.60;;;9.60;99.90;;;;;;5054629;28;20025;-38
2023/03/17 08:41:11;;;;;;;2.20;1.55;;;9.60;99.90;;;;;;5054461;28;20031;-35
2023/03/17 08:43:37;;;;;;;2.47;1.65;;;9.60;99.90;;;;;;5054558;28;20092;-38
2023/03/17 08:46:13;;;;;;;2.28;1.50;;;9.60;99.90;;;;;;5053969;28;20025;-37
2023/03/17 08:48:40;;;;;;;2.47;1.50;;;9.60;99.90;;;;;;5054742;28;20024;-34
2023/03/17 08:51:08;;;;;;;2.53;1.63;;;9.60;99.90;;;;;;5054078;28;20074;-34
2023/03/17 08:53:34;;;;;;;2.50;1.50;;;9.60;99.90;;;;;;5054091;28;20021;-36
2023/03/17 08:56:01;;;;;;;2.33;1.48;;;9.60;99.90;;;;;;5053705;28;20032;-41
2023/03/17 08:58:27;;;;;;;1.88;1.50;;;9.60;99.90;;;;;;5054287;28;20078;-36
2023/03/17 09:00:53;;;;;;;2.35;1.70;;;9.60;99.90;;;;;;5054196;28;20037;-39
2023/03/17 09:03:20;;;;;;;3.05;1.63;;;9.60;99.90;;;;;;5054694;28;20032;-38
2023/03/17 09:05:47;;;;;;;2.40;1.50;;;9.70;99.90;;;;;;5053542;28;20064;-35
2023/03/17 09:08:13;;;;;;;2.80;1.80;;;9.70;99.90;;;;;;5053621;28;20483;-34
2023/03/17 09:10:38;;;;;;;3.78;1.70;;;9.70;99.90;;;;;;5052855;28;20027;-40
2023/03/17 09:13:05;;;;;;;2.67;1.60;;;9.80;99.90;;;;;;5053745;28;20032;-38
2023/03/17 09:15:32;;;;;;;2.10;1.52;;;9.80;99.90;;;;;;5053524;28;20096;-36
2023/03/17 09:17:58;;;;;;;2.20;1.40;;;9.80;99.90;;;;;;5053301;28;20028;-36
2023/03/17 09:20:24;;;;;;;2.25;1.75;;;9.80;99.90;;;;;;5053358;28;20387;-37
2023/03/17 09:22:50;;;;;;;2.28;1.40;;;9.80;99.90;;;;;;5053470;28;20064;-34
2023/03/17 09:25:17;;;;;;;2.17;1.38;;;9.90;99.90;;;;;;5053417;28;20070;-34
2023/03/17 09:27:43;;;;;;;2.28;1.55;;;9.90;99.90;;;;;;5054820;28;20017;-34
2023/03/17 09:30:12;;;;;;;2.45;1.80;;;9.90;99.90;;;;;;5054203;28;20132;-38
2023/03/17 09:32:38;;;;;;;2.53;1.50;;;10.00;99.90;;;;;;5053631;28;20028;-37
2023/03/17 09:35:04;;;;;;;2.22;1.67;;;10.00;99.90;;;;;;5053477;28;20048;-36
2023/03/17 09:37:31;;;;;;;2.97;1.42;;;10.00;99.90;;;;;;5053382;28;20025;-36
2023/03/17 09:39:56;;;;;;;5.05;1.80;;;10.00;99.90;;;;;;5054549;28;20021;-37
2023/03/17 09:42:47;;;;;;;2.95;1.60;;;10.10;99.90;;;;;;5053020;28;20036;-37
2023/03/17 09:45:30;;;;;;;2.17;1.33;;;10.10;99.90;;;;;;5053235;28;20047;-38
2023/03/17 09:48:12;;;;;;;2.65;1.60;;;10.10;99.90;;;;;;5054094;28;20033;-35
2023/03/17 09:50:44;;;;;;;2.08;1.33;;;10.10;99.90;;;;;;5053947;28;20637;-36
2023/03/17 09:53:24;;;;;;;1.95;1.40;;;10.10;99.90;;;;;;5054059;28;20387;-34
2023/03/17 09:55:54;;;;;;;3.25;1.70;;;10.20;99.90;;;;;;5053636;28;20503;-34
2023/03/17 09:58:30;;;;;;;3.17;1.65;;;10.20;99.90;;;;;;5053603;28;20064;-36
2023/03/17 10:00:55;;;;;;;2.33;1.40;;;10.20;99.90;;;;;;5052730;28;20033;-39
2023/03/17 10:03:22;;;;;;;2.80;1.85;;;10.20;99.90;;;;;;5052955;28;20459;-38
2023/03/17 10:05:48;;;;;;;3.05;1.50;;;10.20;99.90;;;;;;5052118;28;20029;-40
2023/03/17 10:08:25;;;;;;;2.15;1.63;;;10.30;99.90;;;;;;5053204;28;20077;-34
2023/03/17 10:11:23;;;;;;;1.90;1.40;;;10.30;99.90;;;;;;5053588;28;20094;-41
2023/03/17 10:14:02;;;;;;;3.65;1.95;;;10.30;99.90;;;;;;5052622;28;20024;-36
2023/03/17 10:16:55;;;;;;;5.65;2.30;;;10.30;99.90;;;;;;5052440;28;20402;-36
2023/03/17 10:19:28;;;;;;;6.18;2.30;;;10.30;99.90;;;;;;5053440;28;20025;-34
2023/03/17 10:22:05;;;;;;;5.75;2.30;;;10.30;99.90;;;;;;5052846;28;20021;-35
2023/03/17 10:24:32;;;;;;;5.63;2.38;;;10.40;99.90;;;;;;5052817;28;20033;-38
2023/03/17 10:27:05;;;;;;;5.60;2.22;;;10.40;99.90;;;;;;5052047;28;20108;-38
2023/03/17 10:29:31;;;;;;;5.53;2.15;;;10.40;99.90;;;;;;5053606;28;20032;-36
2023/03/17 10:31:57;;;;;;;3.83;1.90;;;10.40;99.90;;;;;;5052409;28;20044;-34
2023/03/17 10:34:27;;;;;;;3.88;1.90;;;10.40;99.90;;;;;;5053237;28;20422;-38
2023/03/17 10:36:59;;;;;;;3.97;1.98;;;10.40;99.90;;;;;;5053194;28;20457;-34
2023/03/17 10:39:26;;;;;;;4.70;2.15;;;10.50;99.90;;;;;;5053084;28;20037;-36
2023/03/17 10:42:07;;;;;;;3.17;1.80;;;10.40;99.90;;;;;;5053062;28;20033;-36
2023/03/17 10:44:42;;;;;;;4.28;1.88;;;10.40;99.90;;;;;;5053278;28;20021;-36
2023/03/17 10:47:36;;;;;;;3.58;1.58;;;10.50;99.90;;;;;;5052797;28;20036;-36
2023/03/17 10:50:22;;;;;;;3.20;1.70;;;10.50;99.90;;;;;;5049848;28;20126;-38
2023/03/17 10:52:58;;;;;;;3.72;1.90;;;10.40;99.90;;;;;;5052054;28;20295;-34
2023/03/17 10:55:28;;;;;;;2.85;1.77;;;10.50;99.90;;;;;;5052230;28;20021;-37
2023/03/17 10:58:15;;;;;;;3.63;1.70;;;10.50;99.90;;;;;;5052007;28;20027;-34
2023/03/17 11:00:51;;;;;;;4.93;1.73;;;10.40;99.90;;;;;;5051573;28;20029;-37
2023/03/17 11:03:27;;;;;;;3.30;1.60;;;10.40;99.90;;;;;;5051586;28;20127;-34
2023/03/17 11:05:56;;;;;;;5.43;1.63;;;10.40;99.90;;;;;;5052075;28;20029;-36
2023/03/17 11:08:22;;;;;;;4.20;1.70;;;10.40;99.90;;;;;;5051998;28;20115;-34
2023/03/17 11:10:54;;;;;;;2.75;1.58;;;10.40;99.90;;;;;;5052812;28;20067;-34
2023/03/17 11:13:20;;;;;;;3.17;1.80;;;10.40;99.90;;;;;;5052868;28;20078;-34
2023/03/17 11:15:51;;;;;;;2.03;1.40;;;10.40;99.90;;;;;;5052379;28;20100;-38
2023/03/17 11:18:21;;;;;;;2.25;1.38;;;10.40;99.90;;;;;;5051408;28;20055;-36
2023/03/17 11:20:56;;;;;;;2.45;1.52;;;10.40;99.90;;;;;;5051547;28;20017;-36
2023/03/17 11:23:40;;;;;;;4.05;1.40;;;10.40;99.90;;;;;;5052311;28;20049;-37
2023/03/17 11:26:30;;;;;;;2.80;1.50;;;10.40;99.90;;;;;;5050915;28;20025;-34
2023/03/17 11:29:14;;;;;;;2.35;1.40;;;10.40;99.90;;;;;;5052387;28;20025;-36
2023/03/17 11:32:00;;;;;;;1.67;1.30;;;10.40;99.90;;;;;;5052179;28;20075;-34
2023/03/17 11:34:35;;;;;;;5.22;1.38;;;10.40;99.90;;;;;;5047522;28;20063;-35
2023/03/17 11:37:21;;;;;;;3.15;1.65;;;10.40;99.90;;;;;;5052306;28;20036;-37
2023/03/17 11:40:02;;;;;;;2.08;1.42;;;10.40;99.90;;;;;;5052070;28;20025;-34
2023/03/17 11:42:46;;;;;;;1.77;1.00;;;10.40;99.90;;;;;;5052517;28;20045;-34
2023/03/17 11:45:26;;;;;;;1.87;1.20;;;10.40;99.90;;;;;;5052201;28;20077;-35
2023/03/17 11:47:59;;;;;;;2.50;1.20;;;10.40;99.90;;;;;;5052433;28;20479;-34
2023/03/17 11:50:47;;;;;;;2.45;1.10;;;10.40;99.90;;;;;;5051944;28;20036;-34
2023/03/17 11:53:44;;;;;;;2.88;1.38;;;10.40;99.90;;;;;;5051401;28;20379;-36
2023/03/17 11:56:19;;;;;;;3.08;1.30;;;10.40;99.90;;;;;;5051179;28;20368;-38
2023/03/17 11:58:51;;;;;;;1.83;1.23;;;10.40;99.90;;;;;;5051628;28;20548;-35
2023/03/17 12:01:26;;;;;;;2.67;1.08;;;10.40;99.90;;;;;;5051424;28;20032;-38
2023/03/17 12:04:18;;;;;;;2.40;1.20;;;10.40;99.90;;;;;;5051345;28;20029;-36
2023/03/17 12:06:50;;;;;;;3.25;1.30;;;10.40;99.90;;;;;;5051986;28;20151;-38
2023/03/17 12:09:50;;;;;;;4.25;1.33;;;10.40;99.90;;;;;;5052538;28;20033;-38
2023/03/17 12:12:25;;;;;;;1.40;0.93;;;10.40;99.90;;;;;;5044246;28;20494;-34
2023/03/17 12:14:52;;;;;;;2.15;1.20;;;10.40;99.90;;;;;;5051640;28;20318;-34
2023/03/17 12:17:31;;;;;;;2.20;1.20;;;10.40;99.90;;;;;;5052041;28;20025;-35
2023/03/17 12:20:22;;;;;;;1.38;1.02;;;10.40;99.90;;;;;;5051052;28;20028;-34
2023/03/17 12:22:55;;;;;;;1.38;1.05;;;10.40;99.90;;;;;;5046554;28;20037;-36
2023/03/17 12:25:31;;;;;;;1.70;0.80;;;10.40;99.90;;;;;;5052146;28;20025;-35
2023/03/17 12:28:13;;;;;;;2.42;1.35;;;10.40;99.90;;;;;;5052091;28;20021;-38
2023/03/17 12:31:07;;;;;;;1.75;0.93;;;10.40;99.90;;;;;;5051672;28;20021;-37
2023/03/17 12:33:55;;;;;;;1.52;0.93;;;10.40;99.90;;;;;;5051677;28;20037;-36
2023/03/17 12:36:22;;;;;;;1.33;0.90;;;10.40;99.90;;;;;;5050986;28;20379;-34
2023/03/17 12:39:04;;;;;;;1.67;0.90;;;10.40;99.90;;;;;;5051688;28;20036;-35
2023/03/17 12:42:07;;;;;;;1.45;0.90;;;10.40;99.90;;;;;;5051332;28;20071;-34
2023/03/17 12:45:03;;;;;;;1.98;1.13;;;10.40;99.90;;;;;;5051279;28;20040;-37
2023/03/17 12:47:38;;;;;;;1.55;0.98;;;10.40;99.90;;;;;;5054846;28;20545;-34
2023/03/17 12:50:22;;;;;;;;;;;10.30;99.90;;;;;;5055304;28;20063;-37
2023/03/17 12:53:25;;;;;;;3.28;1.23;;;10.30;99.90;;;;;;5054589;28;20353;-35
2023/03/17 12:55:54;;;;;;;1.42;1.00;;;10.40;99.90;;;;;;5053761;28;20021;-36
2023/03/17 12:58:57;;;;;;;3.55;1.20;;;10.40;99.90;;;;;;5054898;28;20032;-34
2023/03/17 13:02:05;;;;;;;1.67;0.93;;;10.40;99.90;;;;;;5053264;28;20594;-36
2023/03/17 13:04:37;;;;;;;1.50;0.90;;;10.30;99.90;;;;;;5032223;28;20026;-34
2023/03/17 13:07:17;;;;;;;1.77;0.95;;;10.40;99.90;;;;;;5051588;28;20029;-34
2023/03/17 13:10:10;;;;;;;1.90;0.98;;;10.40;99.90;;;;;;5054580;28;20029;-38